Cleveland, Ohio
Current Conditions -  °F | °C
As of 2:51 PM on Thursday 30 Oct 2014 (Local Time) from KCLE Reporting Station
Broken Clouds Broken Clouds  
Wind Chill: 44°   Ceiling: 4400
Heat Index: 49°   Visibility: 10mi
Dew Point: 37°   Wind: 12mph
Humidity: 64%   Direction: 280°W
Pressure: 30.11"   Gusts: NA
Location:  41.5°N, 81.69°W
Report Text: KCLE 301851Z 28010KT 10SM SCT033 BKN044 BKN250 09/03 A3011 RMK AO2 SLP198 T00940028
Loading
Personal Weather Stations






























Interactive Weather Map
Tropical Storm Tracking
New forecast layout! Learn more

10-Day Weather Forecast

Advertisements
Track Severe Weather on mobile